createdAt,value
2023-05-12T00:03:20.977Z,99227.27
2023-05-12T00:08:24.011Z,99222.75
2023-05-12T00:13:29.140Z,99229.52
2023-05-12T00:18:32.192Z,99226.83
2023-05-12T00:23:37.382Z,99223.61
2023-05-12T00:28:40.326Z,99223.27
2023-05-12T00:33:43.230Z,99223.13
2023-05-12T00:38:46.191Z,99225.90
2023-05-12T00:43:49.611Z,99231.66
2023-05-12T00:48:52.886Z,99230.38
2023-05-12T00:53:57.499Z,99233.19
2023-05-12T00:59:00.563Z,99232.69
2023-05-12T01:04:04.621Z,99230.81
2023-05-12T01:09:08.726Z,99235.69
2023-05-12T01:14:12.083Z,99236.66
2023-05-12T01:19:31.840Z,99239.28
2023-05-12T01:24:42.512Z,99237.48
2023-05-12T01:29:47.503Z,99239.64
2023-05-12T01:34:52.720Z,99243.80
2023-05-12T01:39:56.789Z,99249.89
2023-05-12T01:44:59.784Z,99255.42
2023-05-12T01:50:03.789Z,99254.02
2023-05-12T01:55:09.217Z,99253.52
2023-05-12T02:00:30.596Z,99249.85
2023-05-12T02:05:33.900Z,99249.58
2023-05-12T02:10:37.414Z,99251.48
2023-05-12T02:15:40.458Z,99246.05
2023-05-12T02:20:43.895Z,99248.39
2023-05-12T02:25:46.894Z,99251.31
2023-05-12T02:30:51.091Z,99256.21
2023-05-12T02:35:54.390Z,99255.94
2023-05-12T02:40:57.448Z,99262.15
2023-05-12T02:46:02.231Z,99263.33
2023-05-12T02:51:06.068Z,99263.08
2023-05-12T02:56:09.135Z,99257.50
2023-05-12T03:01:12.284Z,99259.73
2023-05-12T03:06:16.275Z,99256.48
2023-05-12T03:11:19.551Z,99252.79
2023-05-12T03:16:22.764Z,99250.96
2023-05-12T03:21:26.057Z,99249.80
2023-05-12T03:26:29.039Z,99252.30
2023-05-12T03:31:32.178Z,99250.67
2023-05-12T03:36:35.161Z,99253.26
2023-05-12T03:41:39.089Z,99254.23
2023-05-12T03:46:42.409Z,99257.92
2023-05-12T03:51:45.449Z,99262.53
2023-05-12T03:56:48.451Z,99262.76
2023-05-12T04:01:53.508Z,99268.20
2023-05-12T04:06:56.929Z,99272.94
2023-05-12T04:12:01.142Z,99273.03
2023-05-12T04:17:04.979Z,99276.42
2023-05-12T04:22:07.890Z,99279.58
2023-05-12T04:27:10.849Z,99284.41
2023-05-12T04:32:14.618Z,99288.52
2023-05-12T04:37:17.775Z,99289.58
2023-05-12T04:42:21.317Z,99291.66
2023-05-12T04:47:24.447Z,99289.02
2023-05-12T04:52:27.667Z,99292.08
2023-05-12T04:57:30.670Z,99295.02
2023-05-12T05:02:34.719Z,99293.49
2023-05-12T05:07:38.073Z,99297.16
2023-05-12T05:12:41.274Z,99298.09
2023-05-12T05:17:49.262Z,99306.37
2023-05-12T05:22:52.892Z,99308.94
2023-05-12T05:27:56.097Z,99306.39
2023-05-12T05:32:59.581Z,99305.96
2023-05-12T05:38:03.722Z,99312.60
2023-05-12T05:43:08.557Z,99320.33
2023-05-12T05:48:11.827Z,99321.95
2023-05-12T05:53:15.047Z,99324.00
2023-05-12T05:58:18.491Z,99328.42
2023-05-12T06:03:23.649Z,99327.81
2023-05-12T06:08:26.913Z,99327.38
2023-05-12T06:13:30.812Z,99327.93
2023-05-12T06:18:37.908Z,99329.61
2023-05-12T06:23:41.647Z,99332.80
2023-05-12T06:28:44.645Z,99336.15
2023-05-12T06:33:47.846Z,99331.60
2023-05-12T06:38:51.186Z,99334.40
2023-05-12T06:43:54.230Z,99332.30
2023-05-12T06:49:03.679Z,99330.66
2023-05-12T06:54:06.697Z,99335.64
2023-05-12T06:59:09.685Z,99333.52
2023-05-12T07:04:12.986Z,99331.56
2023-05-12T07:09:18.825Z,99334.16
2023-05-12T07:14:21.765Z,99330.69
2023-05-12T07:19:24.676Z,99333.13
2023-05-12T07:24:28.029Z,99334.77
2023-05-12T07:29:31.569Z,99335.50
2023-05-12T07:34:34.596Z,99328.11
2023-05-12T07:39:37.518Z,99332.55
2023-05-12T07:44:41.431Z,99336.70
2023-05-12T07:49:44.404Z,99328.20
2023-05-12T07:54:47.359Z,99327.17
2023-05-12T07:59:50.381Z,99328.36
2023-05-12T08:04:53.310Z,99317.94
2023-05-12T08:09:56.332Z,99321.35
2023-05-12T08:14:59.704Z,99317.20
2023-05-12T08:20:07.373Z,99323.83
2023-05-12T08:25:12.411Z,99321.09
2023-05-12T08:30:16.077Z,99319.40
2023-05-12T08:35:21.052Z,99322.41
2023-05-12T08:40:25.834Z,99318.00
2023-05-12T08:45:29.774Z,99319.75
2023-05-12T08:50:35.597Z,99321.62
2023-05-12T08:55:50.815Z,99322.05
2023-05-12T09:01:05.292Z,99317.70
2023-05-12T09:06:10.934Z,99314.68
2023-05-12T09:11:14.603Z,99308.15
2023-05-12T09:16:22.572Z,99311.69
2023-05-12T09:21:26.650Z,99307.32
2023-05-12T09:26:29.747Z,99308.10
2023-05-12T09:31:32.764Z,99307.89
2023-05-12T09:36:36.694Z,99301.08
2023-05-12T09:41:43.249Z,99303.97
2023-05-12T09:46:48.031Z,99298.80
2023-05-12T09:51:59.839Z,99294.39
2023-05-12T09:57:05.238Z,99290.48
2023-05-12T10:02:09.594Z,99295.77
2023-05-12T10:07:14.536Z,99292.01
2023-05-12T10:12:17.686Z,99291.10
2023-05-12T10:17:21.319Z,99295.14
2023-05-12T10:22:25.315Z,99289.20
2023-05-12T10:27:30.055Z,99288.25
2023-05-12T10:32:34.544Z,99284.49
2023-05-12T10:37:40.088Z,99284.80
2023-05-12T10:42:43.334Z,99279.02
2023-05-12T10:47:47.339Z,99278.98
2023-05-12T10:52:54.936Z,99276.75
2023-05-12T10:58:10.112Z,99272.63
2023-05-12T11:03:17.407Z,99276.14
2023-05-12T11:08:23.392Z,99279.09
2023-05-12T11:13:26.843Z,99280.72
2023-05-12T11:18:29.841Z,99281.07
2023-05-12T11:23:33.259Z,99284.52
2023-05-12T11:28:42.437Z,99286.31
2023-05-12T11:33:45.398Z,99290.66
2023-05-12T11:38:50.446Z,99290.29
2023-05-12T11:43:56.083Z,99292.84
2023-05-12T11:49:00.200Z,99286.95
2023-05-12T11:54:03.443Z,99290.91
2023-05-12T11:59:06.450Z,99286.98
2023-05-12T12:04:09.755Z,99288.55
2023-05-12T12:09:13.657Z,99289.59
2023-05-12T12:14:16.936Z,99289.45
2023-05-12T12:19:20.136Z,99280.55
2023-05-12T12:24:24.222Z,99280.69
2023-05-12T12:29:28.554Z,99279.82
2023-05-12T12:34:31.990Z,99282.23
2023-05-12T12:39:35.060Z,99278.16
2023-05-12T12:44:37.986Z,99276.92
2023-05-12T12:49:40.987Z,99280.59
2023-05-12T12:54:43.945Z,99278.17
2023-05-12T12:59:46.927Z,99264.45
2023-05-12T13:04:50.021Z,99263.95
2023-05-12T13:09:53.080Z,99263.84
2023-05-12T13:14:56.390Z,99262.75
2023-05-12T13:19:59.289Z,99265.16
2023-05-12T13:25:03.541Z,99266.58
2023-05-12T13:30:08.427Z,99262.61
2023-05-12T13:35:11.442Z,99264.91
2023-05-12T13:40:14.402Z,99259.56
2023-05-12T13:45:18.360Z,99261.23
2023-05-12T13:50:22.568Z,99266.39
2023-05-12T13:55:25.788Z,99266.20
2023-05-12T14:00:29.984Z,99259.22
2023-05-12T14:05:33.098Z,99257.47
2023-05-12T14:10:36.406Z,99254.75
2023-05-12T14:15:48.648Z,99243.59
2023-05-12T14:20:52.517Z,99248.69
2023-05-12T14:25:55.687Z,99245.97
2023-05-12T14:30:58.850Z,99244.21
2023-05-12T14:36:07.266Z,99241.79
2023-05-12T14:41:11.726Z,99249.86
2023-05-12T14:46:15.196Z,99249.33
2023-05-12T14:51:18.474Z,99253.33
2023-05-12T14:56:21.433Z,99246.46
2023-05-12T15:01:24.428Z,99253.52
2023-05-12T15:06:27.961Z,99257.95
2023-05-12T15:11:31.054Z,99251.24
2023-05-12T15:16:34.435Z,99252.53
2023-05-12T15:21:37.597Z,99254.35
2023-05-12T15:26:40.782Z,99253.95
2023-05-12T15:31:44.027Z,99255.98
2023-05-12T15:36:48.994Z,99257.85
2023-05-12T15:41:52.321Z,99255.22
2023-05-12T15:46:55.822Z,99258.15
2023-05-12T15:51:59.051Z,99259.65
2023-05-12T15:57:02.385Z,99263.10
2023-05-12T16:02:05.371Z,99262.69
2023-05-12T16:07:08.707Z,99255.52
2023-05-12T16:12:11.951Z,99262.58
2023-05-12T16:17:15.091Z,99261.83
2023-05-12T16:22:18.034Z,99266.48
2023-05-12T16:27:21.279Z,99268.13
2023-05-12T16:32:24.397Z,99269.15
2023-05-12T16:37:27.923Z,99277.29
2023-05-12T16:42:31.308Z,99281.64
2023-05-12T16:47:34.348Z,99286.67
2023-05-12T16:52:37.353Z,99287.92
2023-05-12T16:57:42.656Z,99290.34
2023-05-12T17:02:46.505Z,99291.39
2023-05-12T17:07:49.765Z,99298.89
2023-05-12T17:12:53.087Z,99297.85
2023-05-12T17:17:56.891Z,99301.80
2023-05-12T17:23:00.333Z,99300.53
2023-05-12T17:28:04.667Z,99303.29
2023-05-12T17:33:08.525Z,99306.27
2023-05-12T17:38:11.671Z,99316.71
2023-05-12T17:43:16.346Z,99320.27
2023-05-12T17:48:19.587Z,99321.23
2023-05-12T17:53:22.823Z,99321.45
2023-05-12T17:58:26.049Z,99331.18
2023-05-12T18:03:29.062Z,99333.34
2023-05-12T18:08:32.211Z,99337.59
2023-05-12T18:13:35.156Z,99341.86
2023-05-12T18:18:38.692Z,99342.41
2023-05-12T18:23:41.832Z,99347.52
2023-05-12T18:28:44.886Z,99354.66
2023-05-12T18:33:48.913Z,99354.30
2023-05-12T18:38:51.868Z,99360.47
2023-05-12T18:43:54.932Z,99364.88
2023-05-12T18:48:57.999Z,99367.77
2023-05-12T18:54:01.054Z,99371.70
2023-05-12T18:59:04.336Z,99374.37
2023-05-12T19:04:07.751Z,99379.17
2023-05-12T19:09:11.101Z,99374.52
2023-05-12T19:14:16.048Z,99376.60
2023-05-12T19:19:19.155Z,99379.86
2023-05-12T19:24:25.690Z,99384.45
2023-05-12T19:29:28.809Z,99386.60
2023-05-12T19:34:32.364Z,99391.38
2023-05-12T19:39:35.383Z,99394.02
2023-05-12T19:44:38.360Z,99395.50
2023-05-12T19:49:41.842Z,99398.65
2023-05-12T19:54:45.002Z,99401.88
2023-05-12T19:59:48.041Z,99398.52
2023-05-12T20:04:51.065Z,99400.70
2023-05-12T20:09:54.371Z,99405.43
2023-05-12T20:14:57.681Z,99403.55
2023-05-12T20:20:02.362Z,99409.02
2023-05-12T20:25:05.953Z,99406.91
2023-05-12T20:30:10.181Z,99405.94
2023-05-12T20:35:13.211Z,99408.89
2023-05-12T20:40:16.389Z,99407.13
2023-05-12T20:45:20.036Z,99401.85
2023-05-12T20:50:23.954Z,99405.66
2023-05-12T20:55:27.038Z,99404.02
2023-05-12T21:00:30.035Z,99405.89
2023-05-12T21:05:33.191Z,99407.98
2023-05-12T21:10:39.393Z,99409.41
2023-05-12T21:15:42.592Z,99413.03
2023-05-12T21:20:45.730Z,99415.30
2023-05-12T21:25:49.208Z,99422.23
2023-05-12T21:30:52.318Z,99421.91
2023-05-12T21:35:55.286Z,99421.17
2023-05-12T21:40:59.152Z,99428.42
2023-05-12T21:46:03.902Z,99435.14
2023-05-12T21:51:07.299Z,99440.21
2023-05-12T21:56:10.347Z,99439.59
2023-05-12T22:01:13.288Z,99444.20
2023-05-12T22:06:16.737Z,99440.45
2023-05-12T22:11:19.909Z,99440.79
2023-05-12T22:16:31.094Z,99440.77
2023-05-12T22:21:37.980Z,99442.91
2023-05-12T22:26:41.493Z,99445.38
2023-05-12T22:31:44.685Z,99442.72
2023-05-12T22:36:47.813Z,99438.92
2023-05-12T22:41:51.201Z,99438.71
2023-05-12T22:46:54.176Z,99443.48
2023-05-12T22:51:57.257Z,99445.32
2023-05-12T22:57:00.428Z,99447.58
2023-05-12T23:02:03.540Z,99446.77
2023-05-12T23:07:09.027Z,99448.06
2023-05-12T23:12:12.348Z,99446.73
2023-05-12T23:17:15.366Z,99446.89
2023-05-12T23:22:18.355Z,99446.77
2023-05-12T23:27:21.496Z,99445.16
2023-05-12T23:32:24.591Z,99442.70
2023-05-12T23:37:27.678Z,99444.15
2023-05-12T23:42:30.758Z,99442.50
2023-05-12T23:47:33.870Z,99438.30
2023-05-12T23:52:37.176Z,99436.08
2023-05-12T23:57:40.209Z,99435.99
